To NAV CANADA Home Page Login to a new session Search on AWWS site Feedback and Comments Disclaimer Vers la page française équivalente Tips FAQ What's new on the site To the Forecasts and Observations / NOTAM section To "File a Flight Plan" website Publications and other links Update of the User's profile FIC Telephone Numbers My Weather Data Folder Route Weather Data Regional Weather Data Local Weather Data To the Forecasts and Observations / NOTAM section
Request Generated 07/31/2016 at 09:38:57 UTC . Weather information available at that time is displayed.

METAR/TAF

COLD LAKE/GROUP CAPTAIN R.W. MCNAIR/AB    

SPECI CYOD 310932Z 20002KT 15SM FEW021 OVC069 15/15 A2968 RMK SC2AC6 SLP056=
METAR CYOD 310900Z 17002KT 12SM -SHRA SCT021 OVC074 15/15 A2969 RMK SC4AC4 SLP059=
SPECI CYOD 310825Z 16004KT 15SM -SHRA BKN021 OVC033 16/14 A2971 RMK SC6SC2 SLP064=
METAR CYOD 310800Z 18002KT 15SM BKN021 OVC110 16/14 A2971 RMK SC5AC3 SLP066=
METAR CYOD 310700Z 13004KT 15SM FEW029 BKN110 OVC150 16/14 A2971 RMK SC1AC4AC3 SLP066=

TAF CYOD 310530Z 3106/0106 14005KT P6SM FEW020 SCT040 BKN080 OVC160
FM310700 VRB03KT P6SM SCT020 BKN040 TEMPO 3107/3109 BKN020
FM310900 VRB03KT P6SM OVC025 TEMPO 3109/3113 5SM -SHRA BR OVC012
FM311300 27008KT P6SM BKN025 TEMPO 3113/3116 BKN020
FM311800 27012G22KT P6SM BKN040
RMK NXT FCST BY 311200Z=
Your time UTC time
Weather data provided by Environment Canada and NAV CANADA